createdAt,value
2018-05-16T00:02:09.497Z,11.00
2018-05-16T00:04:37.966Z,11.10
2018-05-16T00:07:05.639Z,11.00
2018-05-16T00:09:34.110Z,11.20
2018-05-16T00:12:02.739Z,11.10
2018-05-16T00:14:31.231Z,11.20
2018-05-16T00:16:58.891Z,11.20
2018-05-16T00:19:26.597Z,11.30
2018-05-16T00:21:54.267Z,11.30
2018-05-16T00:24:22.718Z,11.30
2018-05-16T00:26:50.382Z,11.30
2018-05-16T00:29:18.063Z,11.40
2018-05-16T00:31:45.736Z,11.40
2018-05-16T00:34:14.200Z,11.40
2018-05-16T00:36:41.865Z,11.30
2018-05-16T00:39:09.629Z,11.40
2018-05-16T00:41:37.296Z,11.40
2018-05-16T00:44:05.764Z,11.30
2018-05-16T00:46:33.450Z,11.30
2018-05-16T00:49:02.860Z,11.20
2018-05-16T00:51:32.153Z,11.20
2018-05-16T00:54:01.899Z,11.20
2018-05-16T00:56:30.292Z,11.20
2018-05-16T00:58:57.949Z,11.30
2018-05-16T01:01:25.638Z,11.20
2018-05-16T01:03:53.306Z,11.20
2018-05-16T01:06:21.006Z,11.30
2018-05-16T01:08:48.668Z,11.40
2018-05-16T01:11:16.387Z,11.40
2018-05-16T01:13:44.065Z,11.50
2018-05-16T01:16:12.531Z,11.60
2018-05-16T01:18:40.206Z,11.60
2018-05-16T01:21:08.667Z,11.70
2018-05-16T01:23:36.335Z,11.60
2018-05-16T01:26:04.287Z,11.70
2018-05-16T01:28:32.681Z,11.80
2018-05-16T01:31:00.375Z,11.80
2018-05-16T01:33:28.043Z,11.90
2018-05-16T01:35:55.746Z,11.90
2018-05-16T01:38:24.182Z,11.90
2018-05-16T01:40:51.883Z,11.90
2018-05-16T01:43:19.542Z,11.90
2018-05-16T01:45:47.241Z,12.00
2018-05-16T01:48:15.675Z,11.90
2018-05-16T01:50:43.369Z,11.90
2018-05-16T01:53:11.040Z,11.90
2018-05-16T01:55:38.781Z,12.00
2018-05-16T01:58:06.463Z,12.00
2018-05-16T02:00:34.165Z,12.00
2018-05-16T02:03:03.243Z,12.10
2018-05-16T02:05:30.968Z,12.10
2018-05-16T02:07:58.676Z,12.10
2018-05-16T02:10:26.397Z,12.10
2018-05-16T02:12:54.064Z,12.10
2018-05-16T02:15:21.726Z,12.20
2018-05-16T02:17:49.436Z,12.10
2018-05-16T02:20:17.108Z,12.10
2018-05-16T02:22:44.797Z,12.10
2018-05-16T02:25:12.478Z,12.10
2018-05-16T02:27:40.173Z,12.20
2018-05-16T02:30:07.853Z,12.20
2018-05-16T02:32:35.536Z,12.20
2018-05-16T02:35:03.208Z,12.30
2018-05-16T02:37:31.042Z,12.30
2018-05-16T02:39:58.612Z,12.30
2018-05-16T02:42:26.311Z,12.30
2018-05-16T02:44:53.980Z,12.40
2018-05-16T02:47:22.444Z,12.40
2018-05-16T02:49:50.100Z,12.40
2018-05-16T02:52:17.802Z,12.40
2018-05-16T02:54:45.512Z,12.40
2018-05-16T02:57:13.964Z,12.50
2018-05-16T02:59:41.645Z,12.50
2018-05-16T03:02:09.340Z,12.50
2018-05-16T03:04:37.791Z,12.60
2018-05-16T03:07:05.483Z,12.50
2018-05-16T03:09:33.144Z,12.60
2018-05-16T03:12:01.933Z,12.60
2018-05-16T03:14:30.486Z,12.60
2018-05-16T03:16:58.182Z,12.60
2018-05-16T03:19:26.614Z,12.60
2018-05-16T03:21:54.319Z,12.60
2018-05-16T03:24:21.995Z,12.60
2018-05-16T03:26:50.459Z,12.60
2018-05-16T03:29:18.158Z,12.60
2018-05-16T03:31:45.817Z,12.60
2018-05-16T03:34:13.548Z,12.70
2018-05-16T03:36:41.214Z,12.70
2018-05-16T03:39:08.907Z,12.60
2018-05-16T03:41:36.585Z,12.70
2018-05-16T03:44:04.265Z,12.60
2018-05-16T03:46:31.927Z,12.70
2018-05-16T03:49:00.417Z,12.70
2018-05-16T03:51:28.077Z,12.70
2018-05-16T03:53:55.775Z,12.80
2018-05-16T03:56:24.195Z,12.80
2018-05-16T03:59:03.709Z,12.80
2018-05-16T04:01:43.312Z,12.80
2018-05-16T04:04:16.896Z,12.90
2018-05-16T04:06:45.367Z,12.90
2018-05-16T04:09:13.081Z,12.90
2018-05-16T04:11:41.518Z,12.90
2018-05-16T04:14:09.223Z,12.80
2018-05-16T04:16:37.662Z,12.90
2018-05-16T04:19:07.073Z,12.90
2018-05-16T04:21:34.739Z,12.90
2018-05-16T04:24:02.423Z,12.90
2018-05-16T04:26:30.866Z,13.00
2018-05-16T04:28:58.552Z,13.00
2018-05-16T04:31:26.222Z,13.00
2018-05-16T04:33:54.664Z,13.10
2018-05-16T04:36:22.365Z,13.00
2018-05-16T04:38:50.811Z,13.10
2018-05-16T04:41:18.516Z,13.10
2018-05-16T04:43:46.954Z,13.20
2018-05-16T04:46:14.632Z,13.20
2018-05-16T04:48:42.307Z,13.20
2018-05-16T04:51:10.768Z,13.20
2018-05-16T04:53:38.430Z,13.20
2018-05-16T04:56:06.124Z,13.20
2018-05-16T04:58:33.815Z,13.20
2018-05-16T05:01:02.988Z,13.20
2018-05-16T05:03:31.503Z,13.20
2018-05-16T05:05:59.207Z,13.30
2018-05-16T05:08:27.641Z,13.30
2018-05-16T05:10:55.351Z,13.30
2018-05-16T05:13:23.793Z,13.40
2018-05-16T05:15:51.503Z,13.40
2018-05-16T05:18:20.011Z,13.40
2018-05-16T05:20:47.668Z,13.40
2018-05-16T05:23:15.343Z,13.50
2018-05-16T05:25:43.045Z,13.40
2018-05-16T05:28:10.711Z,13.40
2018-05-16T05:30:38.416Z,13.50
2018-05-16T05:33:06.085Z,13.50
2018-05-16T05:35:33.773Z,13.60
2018-05-16T05:38:02.298Z,13.70
2018-05-16T05:40:31.775Z,14.00
2018-05-16T05:42:59.445Z,14.00
2018-05-16T05:45:29.257Z,14.00
2018-05-16T05:47:56.933Z,14.00
2018-05-16T05:50:25.389Z,14.00
2018-05-16T05:52:53.056Z,13.90
2018-05-16T05:55:20.757Z,14.00
2018-05-16T05:57:48.440Z,14.10
2018-05-16T06:00:16.115Z,14.10
2018-05-16T06:02:43.816Z,14.00
2018-05-16T06:05:12.262Z,14.10
2018-05-16T06:07:39.971Z,14.10
2018-05-16T06:10:07.668Z,14.10
2018-05-16T06:12:35.350Z,14.00
2018-05-16T06:15:03.033Z,14.20
2018-05-16T06:17:31.716Z,14.10
2018-05-16T06:19:59.389Z,14.10
2018-05-16T06:22:27.844Z,14.30
2018-05-16T06:24:55.526Z,14.20
2018-05-16T06:27:23.283Z,14.30
2018-05-16T06:29:50.912Z,14.20
2018-05-16T06:32:18.617Z,14.00
2018-05-16T06:34:47.055Z,14.30
2018-05-16T06:37:14.743Z,14.30
2018-05-16T06:39:42.407Z,14.30
2018-05-16T06:42:10.091Z,14.30
2018-05-16T06:44:38.527Z,14.20
2018-05-16T06:47:06.226Z,14.20
2018-05-16T06:49:34.655Z,14.30
2018-05-16T06:52:02.454Z,14.40
2018-05-16T06:54:31.144Z,14.40
2018-05-16T06:56:58.836Z,14.60
2018-05-16T06:59:26.506Z,14.70
2018-05-16T07:01:54.202Z,14.70
2018-05-16T07:04:21.902Z,14.70
2018-05-16T07:06:50.375Z,15.00
2018-05-16T07:09:18.048Z,15.00
2018-05-16T07:11:46.522Z,14.70
2018-05-16T07:14:14.952Z,14.70
2018-05-16T07:16:42.622Z,14.70
2018-05-16T07:19:10.308Z,14.80
2018-05-16T07:21:37.981Z,15.00
2018-05-16T07:24:05.677Z,15.10
2018-05-16T07:26:33.334Z,15.20
2018-05-16T07:29:01.858Z,15.20
2018-05-16T07:31:30.247Z,15.40
2018-05-16T07:33:57.952Z,15.50
2018-05-16T07:36:25.621Z,15.40
2018-05-16T07:38:53.322Z,15.20
2018-05-16T07:41:20.990Z,15.20
2018-05-16T07:43:48.687Z,15.50
2018-05-16T07:46:17.130Z,16.30
2018-05-16T07:48:44.828Z,16.30
2018-05-16T07:51:13.344Z,17.10
2018-05-16T07:53:41.767Z,17.40
2018-05-16T07:56:09.493Z,17.30
2018-05-16T07:58:38.015Z,17.20
2018-05-16T08:01:05.685Z,17.20
2018-05-16T08:03:34.154Z,17.40
2018-05-16T08:06:03.443Z,17.40
2018-05-16T08:08:32.111Z,17.60
2018-05-16T08:11:00.203Z,17.60
2018-05-16T08:13:27.900Z,17.50
2018-05-16T08:15:55.571Z,17.10
2018-05-16T08:18:23.263Z,17.20
2018-05-16T08:20:50.930Z,17.40
2018-05-16T08:23:18.628Z,17.40
2018-05-16T08:25:46.300Z,17.60
2018-05-16T08:28:14.758Z,17.60
2018-05-16T08:30:42.416Z,17.60
2018-05-16T08:33:10.195Z,17.70
2018-05-16T08:35:37.888Z,17.80
2018-05-16T08:38:05.568Z,17.90
2018-05-16T08:40:33.270Z,17.90
2018-05-16T08:43:00.986Z,18.00
2018-05-16T08:45:28.707Z,17.90
2018-05-16T08:47:57.127Z,18.10
2018-05-16T08:50:24.815Z,18.10
2018-05-16T08:52:52.479Z,18.10
2018-05-16T08:55:20.192Z,18.10
2018-05-16T08:57:47.855Z,18.00
2018-05-16T09:00:15.547Z,18.00
2018-05-16T09:02:43.227Z,17.80
2018-05-16T09:05:10.939Z,17.90
2018-05-16T09:07:38.597Z,18.00
2018-05-16T09:10:07.100Z,18.00
2018-05-16T09:12:34.766Z,18.00
2018-05-16T09:15:02.472Z,18.00
2018-05-16T09:17:31.367Z,18.20
2018-05-16T09:19:59.059Z,18.40
2018-05-16T09:22:26.736Z,18.60
2018-05-16T09:24:54.411Z,18.70
2018-05-16T09:27:22.081Z,19.00
2018-05-16T09:29:49.760Z,19.10
2018-05-16T09:32:17.428Z,19.00
2018-05-16T09:34:45.127Z,19.20
2018-05-16T09:37:12.798Z,19.20
2018-05-16T09:39:40.501Z,19.30
2018-05-16T09:42:08.171Z,19.40
2018-05-16T09:44:35.881Z,19.70
2018-05-16T09:47:03.642Z,19.90
2018-05-16T09:49:32.654Z,20.00
2018-05-16T09:52:01.119Z,20.20
2018-05-16T09:54:28.787Z,20.20
2018-05-16T09:56:56.498Z,20.10
2018-05-16T09:59:24.178Z,20.10
2018-05-16T10:01:51.898Z,19.90
2018-05-16T10:04:19.562Z,19.50
2018-05-16T10:06:47.262Z,19.60
2018-05-16T10:09:14.926Z,19.80
2018-05-16T10:11:43.396Z,19.90
2018-05-16T10:14:11.053Z,19.80
2018-05-16T10:16:38.743Z,20.00
2018-05-16T10:19:06.598Z,20.10
2018-05-16T10:21:34.311Z,20.10
2018-05-16T10:24:02.018Z,20.20
2018-05-16T10:26:32.110Z,20.40
2018-05-16T10:29:00.587Z,20.40
2018-05-16T10:31:28.323Z,20.60
2018-05-16T10:33:56.111Z,20.70
2018-05-16T10:36:23.806Z,20.80
2018-05-16T10:38:51.465Z,20.90
2018-05-16T10:41:19.162Z,20.90
2018-05-16T10:43:46.841Z,20.70
2018-05-16T10:46:14.554Z,20.90
2018-05-16T10:48:42.229Z,21.00
2018-05-16T10:51:09.919Z,21.00
2018-05-16T10:53:37.588Z,21.10
2018-05-16T10:56:05.402Z,21.40
2018-05-16T10:58:33.850Z,21.80
2018-05-16T11:01:02.553Z,21.80
2018-05-16T11:03:31.346Z,21.90
2018-05-16T11:05:59.043Z,22.00
2018-05-16T11:08:26.730Z,21.80
2018-05-16T11:10:54.379Z,22.10
2018-05-16T11:13:22.053Z,22.30
2018-05-16T11:15:49.723Z,21.80
2018-05-16T11:18:17.414Z,22.10
2018-05-16T11:20:45.083Z,22.00
2018-05-16T11:23:12.790Z,22.30
2018-05-16T11:25:40.454Z,22.50
2018-05-16T11:28:08.232Z,22.60
2018-05-16T11:30:35.900Z,22.70
2018-05-16T11:33:03.844Z,22.50
2018-05-16T11:35:32.679Z,22.40
2018-05-16T11:38:01.922Z,22.40
2018-05-16T11:40:30.441Z,22.20
2018-05-16T11:42:58.140Z,22.20
2018-05-16T11:45:26.578Z,22.60
2018-05-16T11:47:54.263Z,22.50
2018-05-16T11:50:21.920Z,22.60
2018-05-16T11:52:49.613Z,22.30
2018-05-16T11:55:18.038Z,22.60
2018-05-16T11:57:45.728Z,22.60
2018-05-16T12:00:13.398Z,22.70
2018-05-16T12:02:41.082Z,22.70
2018-05-16T12:05:09.536Z,22.70
2018-05-16T12:07:37.233Z,22.70
2018-05-16T12:10:05.012Z,22.50
2018-05-16T12:12:32.698Z,22.70
2018-05-16T12:15:01.227Z,22.70
2018-05-16T12:17:28.859Z,22.60
2018-05-16T12:19:56.519Z,22.80
2018-05-16T12:22:24.221Z,23.00
2018-05-16T12:24:51.893Z,23.20
2018-05-16T12:27:19.558Z,23.50
2018-05-16T12:29:47.231Z,23.30
2018-05-16T12:32:14.899Z,23.50
2018-05-16T12:34:42.589Z,23.70
2018-05-16T12:37:10.251Z,23.50
2018-05-16T12:39:37.944Z,23.50
2018-05-16T12:42:06.384Z,23.30
2018-05-16T12:44:34.073Z,23.20
2018-05-16T12:47:03.489Z,23.20
2018-05-16T12:49:32.389Z,23.10
2018-05-16T12:52:00.983Z,23.10
2018-05-16T12:54:28.672Z,23.00
2018-05-16T12:56:56.330Z,23.10
2018-05-16T12:59:24.014Z,23.00
2018-05-16T13:01:51.691Z,23.00
2018-05-16T13:04:20.243Z,23.00
2018-05-16T13:06:47.912Z,22.80
2018-05-16T13:09:15.609Z,22.90
2018-05-16T13:11:44.043Z,23.00
2018-05-16T13:14:11.733Z,22.90
2018-05-16T13:16:39.397Z,23.10
2018-05-16T13:19:07.079Z,23.20
2018-05-16T13:21:35.563Z,23.50
2018-05-16T13:24:04.024Z,23.80
2018-05-16T13:26:32.459Z,24.30
2018-05-16T13:29:01.169Z,24.30
2018-05-16T13:31:28.837Z,24.50
2018-05-16T13:33:56.490Z,24.30
2018-05-16T13:36:24.188Z,24.60
2018-05-16T13:38:52.630Z,25.30
2018-05-16T13:41:20.311Z,25.30
2018-05-16T13:43:47.973Z,25.10
2018-05-16T13:46:15.663Z,24.70
2018-05-16T13:48:43.333Z,24.90
2018-05-16T13:51:11.010Z,24.80
2018-05-16T13:53:38.676Z,24.70
2018-05-16T13:56:06.353Z,24.40
2018-05-16T13:58:34.013Z,23.90
2018-05-16T14:01:02.895Z,23.90
2018-05-16T14:03:31.884Z,23.70
2018-05-16T14:06:00.683Z,23.70
2018-05-16T14:08:28.354Z,23.20
2018-05-16T14:10:56.052Z,22.70
2018-05-16T14:13:23.726Z,22.40
2018-05-16T14:15:51.397Z,22.40
2018-05-16T14:18:19.057Z,22.00
2018-05-16T14:20:46.744Z,21.90
2018-05-16T14:23:14.404Z,21.90
2018-05-16T14:25:42.085Z,21.80
2018-05-16T14:28:09.936Z,21.70
2018-05-16T14:30:37.639Z,21.40
2018-05-16T14:33:05.338Z,21.40
2018-05-16T14:35:33.029Z,21.40
2018-05-16T14:38:01.711Z,21.60
2018-05-16T14:40:29.434Z,21.60
2018-05-16T14:42:57.192Z,21.70
2018-05-16T14:45:24.828Z,21.90
2018-05-16T14:47:52.472Z,22.10
2018-05-16T14:50:20.135Z,22.30
2018-05-16T14:52:48.371Z,22.30
2018-05-16T14:55:16.888Z,22.60
2018-05-16T14:57:44.574Z,22.90
2018-05-16T15:00:13.010Z,23.80
2018-05-16T15:02:40.700Z,23.80
2018-05-16T15:05:08.348Z,23.90
2018-05-16T15:07:36.339Z,23.90
2018-05-16T15:10:04.012Z,23.90
2018-05-16T15:12:32.475Z,23.40
2018-05-16T15:15:01.154Z,23.30
2018-05-16T15:17:28.840Z,23.40
2018-05-16T15:19:57.268Z,23.70
2018-05-16T15:22:24.967Z,23.70
2018-05-16T15:24:52.641Z,24.10
2018-05-16T15:27:21.178Z,24.00
2018-05-16T15:29:49.549Z,24.00
2018-05-16T15:32:17.221Z,23.90
2018-05-16T15:34:44.884Z,23.60
2018-05-16T15:37:12.582Z,23.50
2018-05-16T15:39:41.015Z,23.50
2018-05-16T15:42:08.711Z,23.40
2018-05-16T15:44:36.380Z,23.40
2018-05-16T15:47:04.066Z,23.00
2018-05-16T15:49:32.443Z,22.90
2018-05-16T15:52:01.197Z,22.50
2018-05-16T15:54:28.872Z,22.20
2018-05-16T15:56:57.327Z,22.50
2018-05-16T15:59:24.995Z,22.40
2018-05-16T16:01:52.757Z,22.40
2018-05-16T16:04:20.415Z,22.50
2018-05-16T16:06:48.075Z,22.30
2018-05-16T16:09:16.715Z,22.20
2018-05-16T16:11:44.398Z,21.90
2018-05-16T16:14:12.108Z,21.80
2018-05-16T16:16:40.527Z,21.70
2018-05-16T16:19:08.225Z,21.70
2018-05-16T16:21:35.899Z,21.50
2018-05-16T16:24:03.706Z,21.60
2018-05-16T16:26:32.696Z,21.50
2018-05-16T16:29:00.705Z,21.70
2018-05-16T16:31:28.360Z,22.10
2018-05-16T16:33:56.054Z,22.50
2018-05-16T16:36:23.725Z,22.50
2018-05-16T16:38:52.295Z,22.30
2018-05-16T16:41:19.896Z,22.30
2018-05-16T16:43:47.625Z,22.10
2018-05-16T16:46:16.051Z,21.90
2018-05-16T16:48:43.733Z,21.90
2018-05-16T16:51:11.484Z,22.00
2018-05-16T16:53:39.186Z,21.90
2018-05-16T16:56:06.858Z,21.50
2018-05-16T16:58:35.329Z,22.20
2018-05-16T17:01:03.074Z,22.10
2018-05-16T17:03:31.669Z,22.40
2018-05-16T17:05:59.340Z,22.40
2018-05-16T17:08:27.819Z,21.60
2018-05-16T17:10:55.477Z,21.60
2018-05-16T17:13:23.157Z,21.80
2018-05-16T17:15:51.603Z,21.60
2018-05-16T17:18:20.271Z,21.60
2018-05-16T17:20:47.936Z,21.50
2018-05-16T17:23:15.642Z,21.60
2018-05-16T17:25:44.057Z,21.30
2018-05-16T17:28:11.991Z,21.30
2018-05-16T17:30:40.460Z,21.10
2018-05-16T17:33:08.976Z,21.10
2018-05-16T17:35:36.587Z,21.10
2018-05-16T17:38:04.247Z,21.10
2018-05-16T17:40:33.007Z,21.00
2018-05-16T17:43:01.602Z,20.70
2018-05-16T17:45:29.343Z,20.70
2018-05-16T17:47:57.010Z,20.70
2018-05-16T17:50:24.707Z,20.80
2018-05-16T17:52:52.379Z,20.80
2018-05-16T17:55:20.053Z,20.60
2018-05-16T17:57:48.472Z,20.70
2018-05-16T18:00:16.178Z,20.70
2018-05-16T18:02:43.851Z,20.70
2018-05-16T18:05:12.327Z,20.50
2018-05-16T18:07:40.814Z,20.40
2018-05-16T18:10:09.265Z,20.40
2018-05-16T18:12:36.943Z,20.40
2018-05-16T18:15:19.276Z,20.40
2018-05-16T18:17:46.924Z,20.30
2018-05-16T18:20:15.385Z,20.20
2018-05-16T18:22:43.050Z,20.10
2018-05-16T18:25:10.741Z,20.10
2018-05-16T18:27:38.403Z,20.00
2018-05-16T18:30:06.089Z,19.90
2018-05-16T18:32:33.823Z,19.80
2018-05-16T18:35:02.354Z,19.70
2018-05-16T18:37:30.023Z,19.60
2018-05-16T18:39:57.701Z,19.60
2018-05-16T18:42:25.460Z,19.60
2018-05-16T18:44:53.079Z,19.50
2018-05-16T18:47:20.769Z,19.40
2018-05-16T18:49:48.446Z,19.30
2018-05-16T18:52:16.137Z,19.20
2018-05-16T18:54:43.812Z,19.10
2018-05-16T18:57:11.505Z,19.00
2018-05-16T18:59:39.179Z,18.90
2018-05-16T19:02:06.870Z,18.80
2018-05-16T19:04:35.319Z,18.70
2018-05-16T19:07:03.024Z,18.70
2018-05-16T19:09:31.747Z,18.60
2018-05-16T19:11:59.432Z,18.50
2018-05-16T19:14:27.155Z,18.50
2018-05-16T19:16:54.848Z,18.40
2018-05-16T19:19:22.511Z,18.40
2018-05-16T19:21:50.201Z,18.30
2018-05-16T19:24:17.877Z,18.20
2018-05-16T19:26:46.356Z,18.00
2018-05-16T19:29:14.791Z,18.00
2018-05-16T19:31:42.496Z,18.00
2018-05-16T19:34:10.940Z,18.00
2018-05-16T19:36:38.643Z,17.90
2018-05-16T19:39:07.080Z,17.90
2018-05-16T19:41:34.770Z,17.90
2018-05-16T19:44:03.225Z,17.70
2018-05-16T19:46:30.904Z,17.70
2018-05-16T19:48:58.568Z,17.50
2018-05-16T19:51:26.269Z,17.50
2018-05-16T19:53:53.951Z,17.40
2018-05-16T19:56:21.655Z,17.40
2018-05-16T19:58:49.327Z,17.40
2018-05-16T20:01:17.763Z,17.40
2018-05-16T20:03:45.448Z,17.30
2018-05-16T20:06:13.119Z,17.30
2018-05-16T20:08:40.821Z,17.30
2018-05-16T20:11:08.498Z,17.20
2018-05-16T20:13:36.210Z,17.10
2018-05-16T20:16:04.787Z,16.90
2018-05-16T20:18:32.549Z,16.90
2018-05-16T20:21:01.442Z,16.90
2018-05-16T20:23:29.140Z,16.80
2018-05-16T20:25:56.816Z,16.90
2018-05-16T20:28:24.522Z,16.90
2018-05-16T20:30:52.195Z,16.60
2018-05-16T20:33:20.681Z,16.30
2018-05-16T20:35:49.135Z,16.10
2018-05-16T20:38:16.831Z,16.10
2018-05-16T20:40:45.273Z,16.00
2018-05-16T20:43:12.972Z,15.90
2018-05-16T20:45:41.417Z,15.80
2018-05-16T20:48:09.115Z,15.80
2018-05-16T20:50:37.558Z,15.80
2018-05-16T20:53:06.138Z,15.80
2018-05-16T20:55:33.823Z,15.80
2018-05-16T20:58:02.758Z,15.90
2018-05-16T21:00:32.013Z,15.90
2018-05-16T21:03:00.255Z,16.00
2018-05-16T21:05:27.928Z,16.10
2018-05-16T21:07:55.711Z,16.20
2018-05-16T21:10:23.384Z,16.10
2018-05-16T21:12:51.859Z,16.00
2018-05-16T21:15:20.301Z,16.00
2018-05-16T21:17:47.995Z,16.00
2018-05-16T21:20:15.692Z,15.80
2018-05-16T21:22:43.370Z,15.80
2018-05-16T21:25:11.070Z,15.70
2018-05-16T21:27:38.738Z,15.70
2018-05-16T21:30:06.434Z,15.60
2018-05-16T21:32:34.081Z,15.50
2018-05-16T21:35:02.744Z,15.40
2018-05-16T21:37:31.794Z,15.40
2018-05-16T21:39:59.519Z,15.40
2018-05-16T21:42:28.887Z,15.40
2018-05-16T21:44:56.565Z,15.40
2018-05-16T21:47:24.217Z,15.30
2018-05-16T21:49:51.922Z,15.20
2018-05-16T21:52:19.586Z,15.10
2018-05-16T21:54:47.287Z,15.20
2018-05-16T21:57:14.953Z,15.10
2018-05-16T21:59:42.632Z,15.10
2018-05-16T22:02:10.308Z,15.00
2018-05-16T22:04:38.774Z,14.90
2018-05-16T22:07:06.495Z,14.80
2018-05-16T22:09:34.193Z,14.80
2018-05-16T22:12:01.957Z,14.80
2018-05-16T22:14:30.420Z,14.80
2018-05-16T22:16:58.102Z,14.80
2018-05-16T22:19:25.815Z,14.80
2018-05-16T22:21:53.489Z,14.80
2018-05-16T22:24:21.172Z,14.70
2018-05-16T22:26:48.855Z,14.70
2018-05-16T22:29:16.542Z,14.60
2018-05-16T22:31:49.909Z,14.60
2018-05-16T22:34:23.203Z,14.60
2018-05-16T22:36:56.461Z,14.60
2018-05-16T22:39:30.246Z,14.60
2018-05-16T22:42:03.650Z,14.60
2018-05-16T22:47:35.451Z,14.60
2018-05-16T22:50:03.271Z,14.60
2018-05-16T22:52:30.935Z,14.50
2018-05-16T22:54:58.627Z,14.50
2018-05-16T22:57:26.292Z,14.50
2018-05-16T22:59:54.009Z,14.30
2018-05-16T23:02:22.448Z,14.20
2018-05-16T23:04:50.119Z,14.20
2018-05-16T23:07:17.809Z,14.20
2018-05-16T23:09:46.250Z,14.20
2018-05-16T23:12:13.975Z,14.10
2018-05-16T23:14:41.654Z,14.10
2018-05-16T23:17:09.355Z,14.10
2018-05-16T23:19:37.030Z,14.10
2018-05-16T23:22:05.502Z,14.10
2018-05-16T23:24:33.181Z,14.10
2018-05-16T23:27:01.949Z,14.10
2018-05-16T23:29:30.302Z,14.00
2018-05-16T23:31:58.000Z,14.00
2018-05-16T23:34:26.446Z,14.00
2018-05-16T23:36:54.148Z,13.90
2018-05-16T23:39:22.591Z,13.90
2018-05-16T23:41:50.292Z,13.90
2018-05-16T23:44:18.731Z,13.90
2018-05-16T23:46:46.421Z,13.80
2018-05-16T23:49:14.845Z,13.80
2018-05-16T23:51:42.545Z,13.80
2018-05-16T23:54:10.228Z,13.80
2018-05-16T23:56:38.718Z,13.80
2018-05-16T23:59:07.156Z,13.70
